Time;durP1;ratioP1;P1;durP2;ratioP2;P2;SDS_P1;SDS_P2;PMS_P1;PMS_P2;Temp;Humidity;BMP_temperature;BMP_pressure;BME280_temperature;BME280_humidity;BME280_pressure;Samples;Min_cycle;Max_cycle;Signal;HPM_P1;HPM_P2
2022/02/27 00:00:09;;;;;;;;;;;;;;;17.92;47.26;100243.78;2054283;28;20060;-47
2022/02/27 00:01:11;;;;;;;;;;;;;;;17.93;47.51;100236.44;2059450;28;19932;-51
2022/02/27 00:02:11;;;;;;;;;;;;;;;17.94;47.38;100239.03;2057526;28;19956;-48
2022/02/27 00:03:11;;;;;;;;;;;;;;;17.94;47.50;100238.19;2061505;28;19971;-48
2022/02/27 00:04:11;;;;;;;;;;;;;;;17.95;47.51;100243.50;2057258;28;19921;-47
2022/02/27 00:05:12;;;;;;;;;;;;;;;17.94;47.26;100249.97;2057859;28;19921;-50
2022/02/27 00:06:12;;;;;;;;;;;;;;;17.94;47.52;100240.91;2058150;28;19921;-48
2022/02/27 00:07:15;;;;;;;;;;;;;;;17.96;47.52;100241.66;2056453;28;20477;-51
2022/02/27 00:08:15;;;;;;;;;;;;;;;17.96;47.41;100245.22;2058057;28;19919;-48
2022/02/27 00:09:15;;;;;;;;;;;;;;;17.97;47.45;100246.09;2054536;28;19932;-48
2022/02/27 00:10:19;;;;;;;;;;;;;;;17.96;47.48;100245.22;2060453;28;19913;-48
2022/02/27 00:11:19;;;;;;;;;;;;;;;17.96;47.67;100245.22;2058490;28;20126;-49
2022/02/27 00:12:20;;;;;;;;;;;;;;;17.96;47.41;100247.09;2057226;28;19921;-48
2022/02/27 00:13:20;;;;;;;;;;;;;;;17.95;47.58;100243.50;2061469;28;20311;-50
2022/02/27 00:14:20;;;;;;;;;;;;;;;17.95;47.53;100238.03;2061459;28;19913;-48
2022/02/27 00:15:21;;;;;;;;;;;;;;;17.94;47.54;100244.50;2058943;28;19913;-48
2022/02/27 00:16:21;;;;;;;;;;;;;;;17.95;47.67;100248.09;2057747;28;20380;-47
2022/02/27 00:17:21;;;;;;;;;;;;;;;17.94;47.30;100236.31;2058073;28;20424;-49
2022/02/27 00:18:21;;;;;;;;;;;;;;;17.95;47.65;100242.63;2059260;28;20007;-47
2022/02/27 00:19:23;;;;;;;;;;;;;;;17.93;47.55;100242.78;2058972;28;19921;-47
2022/02/27 00:20:23;;;;;;;;;;;;;;;17.92;47.46;100242.91;2061710;28;20501;-48
2022/02/27 00:21:24;;;;;;;;;;;;;;;17.91;47.80;100236.59;2058701;28;19921;-47
2022/02/27 00:22:24;;;;;;;;;;;;;;;17.93;47.68;100239.19;2057238;28;20378;-50
2022/02/27 00:23:24;;;;;;;;;;;;;;;17.92;47.55;100238.31;2054272;28;20307;-48
2022/02/27 00:24:25;;;;;;;;;;;;;;;17.91;47.69;100242.06;2056519;28;19921;-48
2022/02/27 00:25:25;;;;;;;;;;;;;;;17.91;47.47;100236.59;2057647;28;20218;-48
2022/02/27 00:26:25;;;;;;;;;;;;;;;17.89;47.76;100233.16;2057140;28;20350;-47
2022/02/27 00:27:26;;;;;;;;;;;;;;;17.88;47.58;100231.41;2055598;28;20006;-49
2022/02/27 00:28:26;;;;;;;;;;;;;;;17.88;47.63;100234.13;2059283;28;19975;-48
2022/02/27 00:29:26;;;;;;;;;;;;;;;17.86;47.59;100227.97;2056748;28;19964;-48
2022/02/27 00:30:27;;;;;;;;;;;;;;;17.88;47.64;100230.56;2058030;28;20039;-50
2022/02/27 00:31:27;;;;;;;;;;;;;;;17.87;47.57;100229.69;2059272;28;19957;-48
2022/02/27 00:32:28;;;;;;;;;;;;;;;17.89;47.55;100235.03;2055528;28;19921;-47
2022/02/27 00:33:28;;;;;;;;;;;;;;;17.89;47.66;100226.84;2058890;28;20224;-47
2022/02/27 00:34:30;;;;;;;;;;;;;;;17.90;47.61;100226.69;2057685;28;19984;-49
2022/02/27 00:35:30;;;;;;;;;;;;;;;17.90;47.64;100228.56;2056971;28;19975;-48
2022/02/27 00:36:31;;;;;;;;;;;;;;;17.91;47.65;100231.16;2059207;28;19922;-48
2022/02/27 00:37:31;;;;;;;;;;;;;;;17.92;47.72;100230.13;2055650;28;20972;-48
2022/02/27 00:38:32;;;;;;;;;;;;;;;17.94;47.75;100232.75;2053541;28;20510;-48
2022/02/27 00:39:32;;;;;;;;;;;;;;;17.94;47.60;100239.03;2058621;28;19914;-51
2022/02/27 00:40:33;;;;;;;;;;;;;;;17.94;47.68;100241.78;2054663;28;19925;-51
2022/02/27 00:41:33;;;;;;;;;;;;;;;17.94;47.66;100230.88;2057941;28;19933;-49
2022/02/27 00:42:33;;;;;;;;;;;;;;;17.96;47.63;100234.31;2056396;28;19921;-45
2022/02/27 00:43:34;;;;;;;;;;;;;;;17.96;47.44;100237.06;2058030;28;19921;-47
2022/02/27 00:44:34;;;;;;;;;;;;;;;17.96;47.74;100237.06;2058772;28;19984;-49
2022/02/27 00:45:34;;;;;;;;;;;;;;;17.98;47.46;100243.22;2058989;28;19929;-47
2022/02/27 00:46:35;;;;;;;;;;;;;;;17.97;47.68;100233.31;2058072;28;19922;-48
2022/02/27 00:47:35;;;;;;;;;;;;;;;17.98;47.51;100240.50;2059002;28;19921;-48
2022/02/27 00:48:36;;;;;;;;;;;;;;;17.98;47.77;100237.78;2055902;28;20335;-48
2022/02/27 00:49:37;;;;;;;;;;;;;;;17.96;47.75;100234.31;2058488;28;19921;-49
2022/02/27 00:50:37;;;;;;;;;;;;;;;17.96;47.66;100234.31;2056824;28;19925;-48
2022/02/27 00:51:37;;;;;;;;;;;;;;;17.96;47.57;100228.00;2057328;28;19921;-48
2022/02/27 00:52:37;;;;;;;;;;;;;;;17.96;47.79;100233.47;2059553;28;19921;-48
2022/02/27 00:53:38;;;;;;;;;;;;;;;17.95;47.80;100234.44;2045773;28;20372;-49
2022/02/27 00:54:38;;;;;;;;;;;;;;;17.94;47.78;100232.75;2050949;28;19921;-48
2022/02/27 00:55:39;;;;;;;;;;;;;;;17.96;47.67;100233.47;2055622;28;20239;-48
2022/02/27 00:56:39;;;;;;;;;;;;;;;17.95;47.71;100232.56;2060937;28;19925;-48
2022/02/27 00:57:40;;;;;;;;;;;;;;;17.94;47.76;100240.91;2055321;28;20346;-47
2022/02/27 00:58:40;;;;;;;;;;;;;;;17.93;47.72;100240.06;2057410;28;19960;-46
2022/02/27 00:59:44;;;;;;;;;;;;;;;17.94;47.71;100233.59;2056073;28;20324;-48
2022/02/27 01:00:44;;;;;;;;;;;;;;;17.95;48.03;100232.56;2056433;28;20288;-47
2022/02/27 01:01:44;;;;;;;;;;;;;;;17.95;47.59;100238.03;2057558;28;19925;-46
2022/02/27 01:02:45;;;;;;;;;;;;;;;17.95;47.75;100238.03;2058266;28;19944;-48
2022/02/27 01:03:45;;;;;;;;;;;;;;;17.94;47.58;100239.03;2054433;28;20940;-46
2022/02/27 01:04:45;;;;;;;;;;;;;;;17.94;47.62;100230.88;2048079;28;19921;-48
2022/02/27 01:05:46;;;;;;;;;;;;;;;17.95;47.87;100242.63;2047855;28;19922;-46
2022/02/27 01:06:46;;;;;;;;;;;;;;;17.95;47.69;100231.72;2057757;28;19921;-46
2022/02/27 01:07:46;;;;;;;;;;;;;;;17.95;47.55;100229.84;2057547;28;19919;-46
2022/02/27 01:08:47;;;;;;;;;;;;;;;17.95;47.65;100232.56;2054298;28;19918;-50
2022/02/27 01:09:47;;;;;;;;;;;;;;;17.95;47.60;100235.31;2057529;28;19968;-46
2022/02/27 01:10:47;;;;;;;;;;;;;;;17.97;47.60;100232.44;2057040;28;19921;-51
2022/02/27 01:11:48;;;;;;;;;;;;;;;17.96;47.71;100228.88;2049254;28;19928;-49
2022/02/27 01:12:48;;;;;;;;;;;;;;;17.96;47.57;100234.31;2046312;28;19957;-46
2022/02/27 01:13:48;;;;;;;;;;;;;;;17.96;47.54;100226.13;2058389;28;19921;-46
2022/02/27 01:14:48;;;;;;;;;;;;;;;17.97;47.86;100235.19;2057005;28;20279;-46
2022/02/27 01:15:49;;;;;;;;;;;;;;;17.95;47.66;100232.56;2057862;28;20249;-46
2022/02/27 01:16:49;;;;;;;;;;;;;;;17.96;47.60;100233.47;2056770;28;19925;-50
2022/02/27 01:17:49;;;;;;;;;;;;;;;17.95;47.66;100232.56;2058055;28;19921;-47
2022/02/27 01:18:51;;;;;;;;;;;;;;;17.94;47.63;100228.13;2059169;28;19963;-47
2022/02/27 01:19:51;;;;;;;;;;;;;;;17.93;47.75;100234.59;2056880;28;19922;-47
2022/02/27 01:20:51;;;;;;;;;;;;;;;17.92;47.87;100227.41;2059526;28;19932;-47
2022/02/27 01:21:51;;;;;;;;;;;;;;;17.91;47.71;100230.28;2057111;28;20537;-46
2022/02/27 01:22:52;;;;;;;;;;;;;;;17.91;47.71;100231.16;2055171;28;19925;-47
2022/02/27 01:23:52;;;;;;;;;;;;;;;17.89;47.89;100235.88;2056675;28;19925;-47
2022/02/27 01:24:52;;;;;;;;;;;;;;;17.89;48.01;100226.84;2057831;28;19951;-47
2022/02/27 01:25:53;;;;;;;;;;;;;;;17.89;47.95;100233.16;2058383;28;19921;-47
2022/02/27 01:26:53;;;;;;;;;;;;;;;17.89;47.98;100230.41;2056101;28;19921;-47
2022/02/27 01:27:55;;;;;;;;;;;;;;;17.89;47.88;100230.41;2058857;28;19921;-49
2022/02/27 01:28:55;;;;;;;;;;;;;;;17.88;48.14;100228.69;2056927;28;20111;-46
2022/02/27 01:29:56;;;;;;;;;;;;;;;17.89;47.90;100227.69;2055746;28;20139;-51
2022/02/27 01:30:56;;;;;;;;;;;;;;;17.88;47.94;100225.94;2060420;28;20293;-51
2022/02/27 01:31:56;;;;;;;;;;;;;;;17.86;47.87;100225.25;2054253;28;19998;-52
2022/02/27 01:32:56;;;;;;;;;;;;;;;17.85;47.91;100231.69;2060543;28;19935;-52
2022/02/27 01:33:57;;;;;;;;;;;;;;;17.82;47.98;100225.66;2054835;28;19925;-50
2022/02/27 01:34:57;;;;;;;;;;;;;;;17.78;47.87;100231.38;2061479;28;20540;-52
2022/02/27 01:35:57;;;;;;;;;;;;;;;17.78;48.01;100233.22;2058672;28;19955;-51
2022/02/27 01:36:58;;;;;;;;;;;;;;;17.77;47.98;100234.22;2060661;28;19929;-52
2022/02/27 01:37:58;;;;;;;;;;;;;;;17.76;48.08;100237.94;2058758;28;19961;-51
2022/02/27 01:38:59;;;;;;;;;;;;;;;17.75;47.87;100231.63;2058987;28;19921;-51
2022/02/27 01:39:59;;;;;;;;;;;;;;;17.74;48.25;100234.50;2060407;28;20465;-51
2022/02/27 01:40:59;;;;;;;;;;;;;;;17.74;48.04;100234.50;2058897;28;19924;-52
2022/02/27 01:42:00;;;;;;;;;;;;;;;17.74;48.27;100237.22;2059312;28;19921;-53
2022/02/27 01:43:01;;;;;;;;;;;;;;;17.72;48.02;100231.06;2060686;28;19921;-52
2022/02/27 01:44:01;;;;;;;;;;;;;;;17.71;48.03;100230.19;2059737;28;19928;-52
2022/02/27 01:45:05;;;;;;;;;;;;;;;17.71;48.25;100229.31;2060239;28;19929;-51
2022/02/27 01:46:10;;;;;;;;;;;;;;;17.71;48.10;100223.84;2056682;28;19975;-52
2022/02/27 01:47:12;;;;;;;;;;;;;;;17.71;48.22;100229.31;2061070;28;19975;-52
2022/02/27 01:48:12;;;;;;;;;;;;;;;17.69;48.07;100226.75;2059979;28;20271;-52
2022/02/27 01:49:12;;;;;;;;;;;;;;;17.69;48.30;100214.97;2060611;28;19921;-51
2022/02/27 01:50:13;;;;;;;;;;;;;;;17.67;48.07;100215.09;2059498;28;19944;-51
2022/02/27 01:51:13;;;;;;;;;;;;;;;17.66;48.19;100215.22;2061071;28;19925;-52
2022/02/27 01:52:14;;;;;;;;;;;;;;;17.66;48.18;100220.69;2059038;28;19922;-49
2022/02/27 01:53:14;;;;;;;;;;;;;;;17.66;48.29;100215.22;2049415;28;20592;-51
2022/02/27 01:54:14;;;;;;;;;;;;;;;17.63;48.13;100210.06;2052118;28;19922;-50
2022/02/27 01:55:15;;;;;;;;;;;;;;;17.62;48.40;100213.81;2050366;28;19953;-50
2022/02/27 01:56:16;;;;;;;;;;;;;;;17.63;48.18;100215.50;2051984;28;19930;-50
2022/02/27 01:57:16;;;;;;;;;;;;;;;17.62;48.20;100205.63;2058592;28;20303;-52
2022/02/27 01:58:17;;;;;;;;;;;;;;;17.62;48.32;100211.06;2059292;28;19964;-51
2022/02/27 01:59:17;;;;;;;;;;;;;;;17.60;48.19;100205.75;2060758;28;20411;-52
2022/02/27 02:00:17;;;;;;;;;;;;;;;17.60;48.36;100210.34;2059017;28;20131;-52
2022/02/27 02:01:18;;;;;;;;;;;;;;;17.61;48.16;100212.06;2058342;28;19926;-52
2022/02/27 02:02:18;;;;;;;;;;;;;;;17.59;48.26;100209.50;2050468;28;20036;-50
2022/02/27 02:03:18;;;;;;;;;;;;;;;17.60;48.22;100210.34;2053412;28;19922;-52
2022/02/27 02:04:19;;;;;;;;;;;;;;;17.59;48.28;100212.22;2058128;28;19941;-51
2022/02/27 02:05:19;;;;;;;;;;;;;;;17.58;48.22;100211.31;2059359;28;20300;-52
2022/02/27 02:06:20;;;;;;;;;;;;;;;17.58;48.32;100207.75;2057096;28;19921;-52
2022/02/27 02:07:20;;;;;;;;;;;;;;;17.57;48.18;100217.78;2058175;28;19983;-51
2022/02/27 02:08:20;;;;;;;;;;;;;;;17.59;48.22;100214.94;2060915;28;20313;-51
2022/02/27 02:09:21;;;;;;;;;;;;;;;17.60;48.21;100215.78;2057022;28;19925;-51
2022/02/27 02:10:21;;;;;;;;;;;;;;;17.58;48.01;100214.06;2057528;28;19914;-52
2022/02/27 02:11:21;;;;;;;;;;;;;;;17.60;48.09;100215.78;2057757;28;19927;-49
2022/02/27 02:12:22;;;;;;;;;;;;;;;17.60;48.11;100215.78;2059296;28;19968;-51
2022/02/27 02:13:22;;;;;;;;;;;;;;;17.59;48.23;100214.94;2063627;28;19971;-49
2022/02/27 02:14:22;;;;;;;;;;;;;;;17.60;48.29;100210.34;2063765;28;19928;-51
2022/02/27 02:15:23;;;;;;;;;;;;;;;17.58;48.41;100216.78;2059810;28;20236;-52
2022/02/27 02:16:23;;;;;;;;;;;;;;;17.59;48.14;100217.66;2060247;28;19925;-51
2022/02/27 02:17:23;;;;;;;;;;;;;;;17.60;48.30;100221.25;2057525;28;20670;-50
2022/02/27 02:18:24;;;;;;;;;;;;;;;17.60;48.38;100210.34;2059888;28;19909;-50
2022/02/27 02:19:25;;;;;;;;;;;;;;;17.62;48.26;100216.53;2060338;28;19967;-51
2022/02/27 02:20:25;;;;;;;;;;;;;;;17.61;48.16;100212.91;2051398;28;19941;-51
2022/02/27 02:21:26;;;;;;;;;;;;;;;17.61;48.07;100217.50;2051341;28;19926;-50
2022/02/27 02:22:26;;;;;;;;;;;;;;;17.60;48.28;100211.19;2056730;28;20347;-51
2022/02/27 02:23:27;;;;;;;;;;;;;;;17.60;48.02;100215.78;2059824;28;20696;-49
2022/02/27 02:24:27;;;;;;;;;;;;;;;17.58;48.29;100214.06;2054980;28;19948;-51
2022/02/27 02:25:28;;;;;;;;;;;;;;;17.60;48.40;100221.25;2057328;28;20230;-49
2022/02/27 02:26:28;;;;;;;;;;;;;;;17.60;48.25;100215.78;2055966;28;20372;-52
2022/02/27 02:27:30;;;;;;;;;;;;;;;17.58;48.45;100213.19;2059036;28;20332;-50
2022/02/27 02:28:30;;;;;;;;;;;;;;;17.60;48.17;100215.78;2061145;28;20324;-51
2022/02/27 02:29:31;;;;;;;;;;;;;;;17.58;48.14;100211.31;2056263;28;19929;-52
2022/02/27 02:30:31;;;;;;;;;;;;;;;17.59;48.31;100204.03;2055810;28;19932;-52
2022/02/27 02:31:34;;;;;;;;;;;;;;;17.57;48.47;100204.16;2059529;28;19965;-49
2022/02/27 02:32:44;;;;;;;;;;;;;;;17.58;48.23;100205.00;2057255;28;19927;-51
2022/02/27 02:33:44;;;;;;;;;;;;;;;17.60;48.19;100202.16;2059131;28;19921;-51
2022/02/27 02:34:45;;;;;;;;;;;;;;;17.58;48.33;100197.69;2055792;28;20369;-52
2022/02/27 02:35:45;;;;;;;;;;;;;;;17.59;48.34;100193.13;2057889;28;19921;-51
2022/02/27 02:36:46;;;;;;;;;;;;;;;17.58;48.38;100202.28;2050576;28;19922;-52
2022/02/27 02:37:46;;;;;;;;;;;;;;;17.58;48.23;100196.84;2047449;28;19972;-50
2022/02/27 02:38:46;;;;;;;;;;;;;;;17.58;48.24;100191.38;2058396;28;19925;-52
2022/02/27 02:39:47;;;;;;;;;;;;;;;17.57;48.17;100192.41;2060144;28;19948;-50
2022/02/27 02:40:47;;;;;;;;;;;;;;;17.55;48.51;100192.53;2057310;28;19975;-50
2022/02/27 02:41:48;;;;;;;;;;;;;;;17.54;48.40;100185.38;2057779;28;19925;-52
2022/02/27 02:42:48;;;;;;;;;;;;;;;17.56;48.19;100190.66;2059759;28;20356;-51
2022/02/27 02:43:48;;;;;;;;;;;;;;;17.55;48.38;100192.53;2045918;28;19957;-50
2022/02/27 02:44:50;;;;;;;;;;;;;;;17.54;48.32;100190.81;2050924;28;19925;-52
2022/02/27 02:45:50;;;;;;;;;;;;;;;17.54;48.34;100185.38;2057277;28;19928;-51
2022/02/27 02:46:51;;;;;;;;;;;;;;;17.53;48.63;100180.03;2059704;28;19928;-51
2022/02/27 02:47:51;;;;;;;;;;;;;;;17.54;48.34;100179.91;2050172;28;20621;-52
2022/02/27 02:48:51;;;;;;;;;;;;;;;17.55;48.53;100178.03;2048729;28;19922;-52
2022/02/27 02:49:52;;;;;;;;;;;;;;;17.54;48.61;100179.03;2056860;28;19921;-51
2022/02/27 02:50:52;;;;;;;;;;;;;;;17.52;48.52;100181.91;2060671;28;19921;-52
2022/02/27 02:51:53;;;;;;;;;;;;;;;17.51;48.48;100180.16;2058917;28;19921;-49
2022/02/27 02:52:54;;;;;;;;;;;;;;;17.52;48.56;100181.06;2056985;28;20039;-51
2022/02/27 02:53:55;;;;;;;;;;;;;;;17.51;48.65;100173.84;2058204;28;19922;-52
2022/02/27 02:54:55;;;;;;;;;;;;;;;17.50;48.33;100183.91;2061691;28;20009;-51
2022/02/27 02:55:55;;;;;;;;;;;;;;;17.49;48.62;100182.19;2058043;28;19925;-51
2022/02/27 02:56:56;;;;;;;;;;;;;;;17.48;48.62;100180.44;2060834;28;19922;-50
2022/02/27 02:57:56;;;;;;;;;;;;;;;17.48;48.47;100180.44;2053198;28;19960;-49
2022/02/27 02:58:56;;;;;;;;;;;;;;;17.47;48.44;100178.75;2057340;28;19921;-51
2022/02/27 02:59:56;;;;;;;;;;;;;;;17.47;48.26;100176.00;2060244;28;19929;-49
2022/02/27 03:00:57;;;;;;;;;;;;;;;17.46;48.61;100177.00;2059289;28;19925;-52
2022/02/27 03:01:57;;;;;;;;;;;;;;;17.45;48.56;100175.28;2059590;28;19926;-52
2022/02/27 03:02:57;;;;;;;;;;;;;;;17.45;48.48;100169.81;2063019;28;20349;-50
2022/02/27 03:03:58;;;;;;;;;;;;;;;17.46;48.67;100179.72;2062407;28;20220;-51
2022/02/27 03:04:58;;;;;;;;;;;;;;;17.44;48.59;100179.03;2059236;28;19914;-51
2022/02/27 03:05:59;;;;;;;;;;;;;;;17.45;48.76;100179.88;2057072;28;19971;-52
2022/02/27 03:06:59;;;;;;;;;;;;;;;17.46;48.63;100177.00;2058446;28;20240;-49
2022/02/27 03:08:00;;;;;;;;;;;;;;;17.47;48.58;100184.19;2053986;28;20010;-51
2022/02/27 03:09:00;;;;;;;;;;;;;;;17.49;48.59;100182.19;2058597;28;20236;-51
2022/02/27 03:10:00;;;;;;;;;;;;;;;17.50;48.33;100183.91;2059902;28;19921;-49
2022/02/27 03:11:01;;;;;;;;;;;;;;;17.51;48.77;100177.44;2057788;28;20021;-52
2022/02/27 03:12:04;;;;;;;;;;;;;;;17.51;48.54;100179.31;2059180;28;20361;-52
2022/02/27 03:13:05;;;;;;;;;;;;;;;17.51;48.52;100180.16;2054271;28;20284;-51
2022/02/27 03:14:05;;;;;;;;;;;;;;;17.51;48.55;100180.16;2059997;28;19921;-51
2022/02/27 03:15:07;;;;;;;;;;;;;;;17.51;48.40;100180.16;2057525;28;19992;-51
2022/02/27 03:16:07;;;;;;;;;;;;;;;17.54;48.35;100179.03;2055562;28;20543;-49
2022/02/27 03:17:07;;;;;;;;;;;;;;;17.54;48.64;100179.03;2059889;28;20237;-51
2022/02/27 03:18:08;;;;;;;;;;;;;;;17.53;48.51;100180.91;2058699;28;19949;-49
2022/02/27 03:19:08;;;;;;;;;;;;;;;17.54;48.53;100184.47;2057889;28;20316;-52
2022/02/27 03:20:09;;;;;;;;;;;;;;;17.53;48.61;100178.16;2059680;28;19917;-52
2022/02/27 03:21:09;;;;;;;;;;;;;;;17.54;48.44;100182.63;2056761;28;19918;-51
2022/02/27 03:22:10;;;;;;;;;;;;;;;17.53;48.30;100180.91;2060472;28;19925;-50
2022/02/27 03:23:10;;;;;;;;;;;;;;;17.54;48.63;100185.38;2056461;28;19921;-51
2022/02/27 03:24:10;;;;;;;;;;;;;;;17.54;48.58;100179.03;2059750;28;19928;-51
2022/02/27 03:25:11;;;;;;;;;;;;;;;17.53;48.50;100178.16;2058066;28;19996;-52
2022/02/27 03:26:11;;;;;;;;;;;;;;;17.53;48.60;100175.44;2050692;28;19922;-51
2022/02/27 03:27:11;;;;;;;;;;;;;;;17.54;48.51;100174.47;2051297;28;20206;-52
2022/02/27 03:28:12;;;;;;;;;;;;;;;17.52;48.52;100176.47;2057551;28;19913;-51
2022/02/27 03:29:12;;;;;;;;;;;;;;;17.51;48.50;100182.88;2060204;28;19917;-51
2022/02/27 03:30:13;;;;;;;;;;;;;;;17.49;48.45;100165.84;2058465;28;19948;-51
2022/02/27 03:31:13;;;;;;;;;;;;;;;17.49;48.47;100175.84;2058800;28;20019;-51
2022/02/27 03:32:13;;;;;;;;;;;;;;;17.48;48.82;100171.41;2057955;28;19965;-50
2022/02/27 03:33:14;;;;;;;;;;;;;;;17.47;48.54;100170.56;2059169;28;19928;-51
2022/02/27 03:34:14;;;;;;;;;;;;;;;17.47;48.91;100172.44;2059214;28;20425;-51
2022/02/27 03:35:18;;;;;;;;;;;;;;;17.46;48.69;100170.69;2059599;28;19925;-51
2022/02/27 03:36:19;;;;;;;;;;;;;;;17.47;48.75;100173.28;2058837;28;19921;-49
2022/02/27 03:37:19;;;;;;;;;;;;;;;17.47;48.80;100173.28;2060109;28;19921;-52
2022/02/27 03:38:19;;;;;;;;;;;;;;;17.46;48.59;100168.81;2059204;28;19921;-51
2022/02/27 03:39:19;;;;;;;;;;;;;;;17.45;49.00;100164.38;2057828;28;19969;-52
2022/02/27 03:40:20;;;;;;;;;;;;;;;17.45;48.78;100158.94;2058524;28;20717;-51
2022/02/27 03:41:20;;;;;;;;;;;;;;;17.44;48.60;100151.75;2059663;28;20422;-51
2022/02/27 03:42:20;;;;;;;;;;;;;;;17.45;48.95;100158.06;2058645;28;19966;-51
2022/02/27 03:43:21;;;;;;;;;;;;;;;17.45;48.76;100163.53;2059132;28;20288;-51
2022/02/27 03:44:21;;;;;;;;;;;;;;;17.45;48.62;100169.81;2058254;28;20499;-52
2022/02/27 03:45:22;;;;;;;;;;;;;;;17.45;48.70;100164.38;2060127;28;20445;-51
2022/02/27 03:46:22;;;;;;;;;;;;;;;17.45;48.73;100158.06;2059726;28;19922;-52
2022/02/27 03:47:22;;;;;;;;;;;;;;;17.44;48.67;100151.75;2058006;28;19917;-51
2022/02/27 03:48:23;;;;;;;;;;;;;;;17.45;48.68;100166.25;2059773;28;19927;-52
2022/02/27 03:49:23;;;;;;;;;;;;;;;17.46;48.67;100166.09;2058726;28;20228;-52
2022/02/27 03:50:23;;;;;;;;;;;;;;;17.44;48.50;100164.50;2055878;28;21217;-52
2022/02/27 03:51:23;;;;;;;;;;;;;;;17.43;48.71;100171.81;2059946;28;19918;-49
2022/02/27 03:52:24;;;;;;;;;;;;;;;17.43;48.86;100171.81;2058793;28;19940;-51
2022/02/27 03:53:24;;;;;;;;;;;;;;;17.43;48.83;100166.38;2059208;28;19921;-53
2022/02/27 03:54:25;;;;;;;;;;;;;;;17.41;48.93;100172.97;2057429;28;19974;-52
2022/02/27 03:55:25;;;;;;;;;;;;;;;17.40;48.94;100172.09;2058039;28;19921;-51
2022/02/27 03:56:25;;;;;;;;;;;;;;;17.39;48.92;100173.09;2059160;28;19922;-50
2022/02/27 03:57:26;;;;;;;;;;;;;;;17.39;48.82;100170.38;2056133;28;19928;-52
2022/02/27 03:58:26;;;;;;;;;;;;;;;17.40;48.71;100173.97;2059259;28;19921;-52
2022/02/27 03:59:27;;;;;;;;;;;;;;;17.39;48.96;100173.09;2057244;28;19918;-52
2022/02/27 04:00:27;;;;;;;;;;;;;;;17.39;48.97;100175.81;2058614;28;20221;-52
2022/02/27 04:01:28;;;;;;;;;;;;;;;17.42;48.86;100180.13;2055569;28;20238;-52
2022/02/27 04:02:28;;;;;;;;;;;;;;;17.41;48.80;100173.81;2057742;28;20020;-52
2022/02/27 04:03:28;;;;;;;;;;;;;;;17.41;48.81;100173.81;2060526;28;19964;-51
2022/02/27 04:04:29;;;;;;;;;;;;;;;17.41;48.89;100173.81;2058837;28;19940;-51
2022/02/27 04:05:29;;;;;;;;;;;;;;;17.41;48.82;100171.09;2057121;28;20234;-52
2022/02/27 04:06:29;;;;;;;;;;;;;;;17.41;48.98;100171.09;2060886;28;19940;-50
2022/02/27 04:07:30;;;;;;;;;;;;;;;17.43;48.70;100174.56;2053860;28;19921;-52
2022/02/27 04:08:30;;;;;;;;;;;;;;;17.43;49.08;100170.97;2059650;28;19925;-52
2022/02/27 04:09:30;;;;;;;;;;;;;;;17.42;48.90;100172.84;2061030;28;19924;-51
2022/02/27 04:10:31;;;;;;;;;;;;;;;17.44;48.88;100176.28;2056904;28;20008;-52
2022/02/27 04:11:31;;;;;;;;;;;;;;;17.45;48.92;100185.31;2059801;28;19995;-52
2022/02/27 04:12:31;;;;;;;;;;;;;;;17.45;48.88;100175.28;2056828;28;19926;-51
2022/02/27 04:13:32;;;;;;;;;;;;;;;17.45;48.70;100169.81;2060782;28;19967;-52
2022/02/27 04:14:32;;;;;;;;;;;;;;;17.46;48.90;100174.25;2055986;28;19921;-51
2022/02/27 04:15:33;;;;;;;;;;;;;;;17.45;48.81;100175.28;2059625;28;19921;-52
2022/02/27 04:16:33;;;;;;;;;;;;;;;17.45;48.73;100175.28;2059264;28;19925;-51
2022/02/27 04:17:34;;;;;;;;;;;;;;;17.46;48.95;100173.41;2059497;28;20719;-52
2022/02/27 04:18:34;;;;;;;;;;;;;;;17.45;48.82;100164.38;2058584;28;20745;-52
2022/02/27 04:19:35;;;;;;;;;;;;;;;17.46;48.86;100168.81;2058058;28;20008;-50
2022/02/27 04:20:35;;;;;;;;;;;;;;;17.46;49.04;100171.53;2056031;28;20642;-53
2022/02/27 04:21:36;;;;;;;;;;;;;;;17.45;48.77;100172.56;2059720;28;20142;-52
2022/02/27 04:22:36;;;;;;;;;;;;;;;17.45;48.90;100169.81;2056876;28;20024;-52
2022/02/27 04:23:36;;;;;;;;;;;;;;;17.46;48.86;100170.69;2061271;28;20244;-51
2022/02/27 04:24:37;;;;;;;;;;;;;;;17.46;48.85;100171.53;2057652;28;20016;-52
2022/02/27 04:25:37;;;;;;;;;;;;;;;17.46;49.06;100174.25;2056591;28;20378;-52
2022/02/27 04:26:37;;;;;;;;;;;;;;;17.47;49.07;100172.44;2058672;28;19994;-51
2022/02/27 04:27:38;;;;;;;;;;;;;;;17.47;48.98;100167.84;2055371;28;20797;-52
2022/02/27 04:28:38;;;;;;;;;;;;;;;17.48;49.05;100168.69;2059267;28;20248;-52
2022/02/27 04:29:38;;;;;;;;;;;;;;;17.46;48.78;100163.38;2053047;28;19921;-49
2022/02/27 04:30:39;;;;;;;;;;;;;;;17.46;48.90;100171.53;2057036;28;19937;-51
2022/02/27 04:31:39;;;;;;;;;;;;;;;17.46;48.95;100163.38;2060457;28;20407;-52
2022/02/27 04:32:39;;;;;;;;;;;;;;;17.45;49.12;100167.09;2058609;28;19921;-52
2022/02/27 04:33:40;;;;;;;;;;;;;;;17.45;49.18;100164.38;2059435;28;19921;-52
2022/02/27 04:34:40;;;;;;;;;;;;;;;17.44;49.00;100167.22;2058017;28;20437;-51
2022/02/27 04:35:40;;;;;;;;;;;;;;;17.44;48.96;100161.78;2056070;28;20340;-52
2022/02/27 04:36:40;;;;;;;;;;;;;;;17.44;48.92;100161.78;2059392;28;20143;-51
2022/02/27 04:37:41;;;;;;;;;;;;;;;17.44;49.00;100167.22;2058095;28;19922;-52
2022/02/27 04:38:41;;;;;;;;;;;;;;;17.43;49.04;100168.25;2046745;28;20010;-52
2022/02/27 04:39:42;;;;;;;;;;;;;;;17.42;49.14;100174.69;2049819;28;19921;-52
2022/02/27 04:40:42;;;;;;;;;;;;;;;17.40;49.08;100177.56;2057339;28;19921;-50
2022/02/27 04:41:42;;;;;;;;;;;;;;;17.40;49.07;100172.09;2061143;28;20017;-53
2022/02/27 04:42:43;;;;;;;;;;;;;;;17.41;49.02;100172.97;2056941;28;19936;-51
2022/02/27 04:43:43;;;;;;;;;;;;;;;17.40;48.98;100172.09;2056139;28;19921;-51
2022/02/27 04:44:44;;;;;;;;;;;;;;;17.41;48.81;100171.09;2059238;28;19941;-51
2022/02/27 04:45:44;;;;;;;;;;;;;;;17.41;49.15;100170.25;2057718;28;19997;-51
2022/02/27 04:46:44;;;;;;;;;;;;;;;17.40;49.16;100166.66;2057402;28;20000;-52
2022/02/27 04:47:45;;;;;;;;;;;;;;;17.40;48.87;100166.66;2062098;28;19948;-52
2022/02/27 04:48:45;;;;;;;;;;;;;;;17.40;48.88;100172.09;2059517;28;19921;-50
2022/02/27 04:49:48;;;;;;;;;;;;;;;17.38;49.04;100165.94;2060839;28;19971;-51
2022/02/27 04:50:48;;;;;;;;;;;;;;;17.40;48.99;100172.09;2056667;28;19998;-52
2022/02/27 04:51:48;;;;;;;;;;;;;;;17.39;48.93;100170.38;2057975;28;19933;-52
2022/02/27 04:52:49;;;;;;;;;;;;;;;17.38;48.98;100165.94;2060913;28;19941;-50
2022/02/27 04:53:49;;;;;;;;;;;;;;;17.40;49.17;100166.66;2058075;28;19918;-51
2022/02/27 04:54:50;;;;;;;;;;;;;;;17.39;49.18;100170.38;2060179;28;20039;-51
2022/02/27 04:55:50;;;;;;;;;;;;;;;17.40;49.00;100166.66;2059662;28;19968;-52
2022/02/27 04:56:50;;;;;;;;;;;;;;;17.39;48.90;100162.19;2062164;28;19928;-51
2022/02/27 04:57:51;;;;;;;;;;;;;;;17.39;49.12;100170.38;2055163;28;19972;-51
2022/02/27 04:58:51;;;;;;;;;;;;;;;17.36;49.19;100165.19;2059471;28;19921;-51
2022/02/27 04:59:51;;;;;;;;;;;;;;;17.38;49.25;100173.25;2060067;28;19921;-51
2022/02/27 05:00:52;;;;;;;;;;;;;;;17.38;49.14;100170.53;2059697;28;19921;-52
2022/02/27 05:01:52;;;;;;;;;;;;;;;17.38;49.15;100174.09;2060898;28;20038;-52
2022/02/27 05:02:52;;;;;;;;;;;;;;;17.39;49.28;100175.81;2060327;28;20438;-52
2022/02/27 05:03:53;;;;;;;;;;;;;;;17.39;48.89;100169.50;2061129;28;19913;-52
2022/02/27 05:04:53;;;;;;;;;;;;;;;17.39;49.10;100173.09;2061821;28;19944;-52
2022/02/27 05:05:53;;;;;;;;;;;;;;;17.39;49.17;100175.81;2058870;28;20028;-52
2022/02/27 05:06:54;;;;;;;;;;;;;;;17.40;48.96;100177.56;2060053;28;19922;-52
2022/02/27 05:07:54;;;;;;;;;;;;;;;17.40;48.99;100183.00;2052001;28;19940;-51
2022/02/27 05:08:54;;;;;;;;;;;;;;;17.40;49.13;100177.56;2052181;28;19922;-51
2022/02/27 05:09:55;;;;;;;;;;;;;;;17.41;49.04;100179.28;2060046;28;19922;-51